sensor_id;sensor_type;location;lat;lon;timestamp;temperature;humidity
3756;DHT22;1893;52.526;13.360;2022-10-31T00:01:56;12.60;99.90
3756;DHT22;1893;52.526;13.360;2022-10-31T00:04:22;12.60;99.90
3756;DHT22;1893;52.526;13.360;2022-10-31T00:06:47;12.50;99.90
3756;DHT22;1893;52.526;13.360;2022-10-31T00:09:13;12.50;99.90
3756;DHT22;1893;52.526;13.360;2022-10-31T00:11:38;12.60;99.90
3756;DHT22;1893;52.526;13.360;2022-10-31T00:14:04;12.60;99.90
3756;DHT22;1893;52.526;13.360;2022-10-31T00:16:30;12.60;99.90
3756;DHT22;1893;52.526;13.360;2022-10-31T00:19:00;12.60;99.90
3756;DHT22;1893;52.526;13.360;2022-10-31T00:21:27;12.60;99.90
3756;DHT22;1893;52.526;13.360;2022-10-31T00:23:53;12.60;99.90
3756;DHT22;1893;52.526;13.360;2022-10-31T00:26:19;12.60;99.90
3756;DHT22;1893;52.526;13.360;2022-10-31T00:28:45;12.50;99.90
3756;DHT22;1893;52.526;13.360;2022-10-31T00:31:12;12.40;99.90
3756;DHT22;1893;52.526;13.360;2022-10-31T00:33:39;12.40;99.90
3756;DHT22;1893;52.526;13.360;2022-10-31T00:36:06;12.40;99.90
3756;DHT22;1893;52.526;13.360;2022-10-31T00:38:32;12.40;99.90
3756;DHT22;1893;52.526;13.360;2022-10-31T00:40:58;12.40;99.90
3756;DHT22;1893;52.526;13.360;2022-10-31T00:43:24;12.40;99.90
3756;DHT22;1893;52.526;13.360;2022-10-31T00:45:49;12.30;99.90
3756;DHT22;1893;52.526;13.360;2022-10-31T00:48:15;12.30;99.90
3756;DHT22;1893;52.526;13.360;2022-10-31T00:50:41;12.30;99.90
3756;DHT22;1893;52.526;13.360;2022-10-31T00:53:06;12.30;99.90
3756;DHT22;1893;52.526;13.360;2022-10-31T00:55:32;12.20;99.90
3756;DHT22;1893;52.526;13.360;2022-10-31T00:57:58;12.20;99.90
3756;DHT22;1893;52.526;13.360;2022-10-31T01:00:23;12.20;99.90
3756;DHT22;1893;52.526;13.360;2022-10-31T01:02:49;12.30;99.90
3756;DHT22;1893;52.526;13.360;2022-10-31T01:05:15;12.40;99.90
3756;DHT22;1893;52.526;13.360;2022-10-31T01:07:41;12.50;99.90
3756;DHT22;1893;52.526;13.360;2022-10-31T01:10:07;12.50;99.90
3756;DHT22;1893;52.526;13.360;2022-10-31T01:12:44;12.50;99.90
3756;DHT22;1893;52.526;13.360;2022-10-31T01:15:12;12.40;99.90
3756;DHT22;1893;52.526;13.360;2022-10-31T01:17:38;12.40;99.90
3756;DHT22;1893;52.526;13.360;2022-10-31T01:20:04;12.40;99.90
3756;DHT22;1893;52.526;13.360;2022-10-31T01:22:31;12.30;99.90
3756;DHT22;1893;52.526;13.360;2022-10-31T01:24:56;12.30;99.90
3756;DHT22;1893;52.526;13.360;2022-10-31T01:27:22;12.20;99.90
3756;DHT22;1893;52.526;13.360;2022-10-31T01:29:47;12.20;99.90
3756;DHT22;1893;52.526;13.360;2022-10-31T01:32:13;12.10;99.90
3756;DHT22;1893;52.526;13.360;2022-10-31T01:34:38;12.10;99.90
3756;DHT22;1893;52.526;13.360;2022-10-31T01:37:04;12.00;99.90
3756;DHT22;1893;52.526;13.360;2022-10-31T01:39:29;12.00;99.90
3756;DHT22;1893;52.526;13.360;2022-10-31T01:41:55;12.00;99.90
3756;DHT22;1893;52.526;13.360;2022-10-31T01:49:28;11.90;99.90
3756;DHT22;1893;52.526;13.360;2022-10-31T01:52:00;11.90;99.90
3756;DHT22;1893;52.526;13.360;2022-10-31T01:54:32;11.90;99.90
3756;DHT22;1893;52.526;13.360;2022-10-31T01:56:59;11.90;99.90
3756;DHT22;1893;52.526;13.360;2022-10-31T01:59:28;11.90;99.90
3756;DHT22;1893;52.526;13.360;2022-10-31T02:01:55;11.80;99.90
3756;DHT22;1893;52.526;13.360;2022-10-31T02:04:23;11.90;99.90
3756;DHT22;1893;52.526;13.360;2022-10-31T02:06:57;11.80;99.90
3756;DHT22;1893;52.526;13.360;2022-10-31T02:09:25;11.80;99.90
3756;DHT22;1893;52.526;13.360;2022-10-31T02:11:52;11.80;99.90
3756;DHT22;1893;52.526;13.360;2022-10-31T02:14:19;11.70;99.90
3756;DHT22;1893;52.526;13.360;2022-10-31T02:16:46;11.70;99.90
3756;DHT22;1893;52.526;13.360;2022-10-31T02:30:55;11.60;99.90
3756;DHT22;1893;52.526;13.360;2022-10-31T02:36:16;11.60;99.90
3756;DHT22;1893;52.526;13.360;2022-10-31T02:38:53;11.70;99.90
3756;DHT22;1893;52.526;13.360;2022-10-31T02:44:02;11.60;99.90
3756;DHT22;1893;52.526;13.360;2022-10-31T02:46:59;11.50;99.90
3756;DHT22;1893;52.526;13.360;2022-10-31T02:50:37;11.60;99.90
3756;DHT22;1893;52.526;13.360;2022-10-31T02:52:34;11.50;99.90
3756;DHT22;1893;52.526;13.360;2022-10-31T02:57:36;11.60;99.90
3756;DHT22;1893;52.526;13.360;2022-10-31T03:00:07;11.50;99.90
3756;DHT22;1893;52.526;13.360;2022-10-31T03:05:20;11.40;99.90
3756;DHT22;1893;52.526;13.360;2022-10-31T03:08:06;11.40;99.90
3756;DHT22;1893;52.526;13.360;2022-10-31T03:10:47;11.40;99.90
3756;DHT22;1893;52.526;13.360;2022-10-31T03:13:26;11.30;99.90
3756;DHT22;1893;52.526;13.360;2022-10-31T03:18:33;11.30;99.90
3756;DHT22;1893;52.526;13.360;2022-10-31T03:21:06;11.30;99.90
3756;DHT22;1893;52.526;13.360;2022-10-31T03:23:34;11.20;99.90
3756;DHT22;1893;52.526;13.360;2022-10-31T03:26:04;11.20;99.90
3756;DHT22;1893;52.526;13.360;2022-10-31T03:28:36;11.20;99.90
3756;DHT22;1893;52.526;13.360;2022-10-31T03:31:04;11.20;99.90
3756;DHT22;1893;52.526;13.360;2022-10-31T03:33:33;11.20;99.90
3756;DHT22;1893;52.526;13.360;2022-10-31T03:36:01;11.20;99.90
3756;DHT22;1893;52.526;13.360;2022-10-31T03:38:28;11.20;99.90
3756;DHT22;1893;52.526;13.360;2022-10-31T03:40:56;11.20;99.90
3756;DHT22;1893;52.526;13.360;2022-10-31T03:43:27;11.20;99.90
3756;DHT22;1893;52.526;13.360;2022-10-31T03:45:53;11.20;99.90
3756;DHT22;1893;52.526;13.360;2022-10-31T03:48:20;11.10;99.90
3756;DHT22;1893;52.526;13.360;2022-10-31T03:53:44;11.20;99.90
3756;DHT22;1893;52.526;13.360;2022-10-31T03:56:21;11.20;99.90
3756;DHT22;1893;52.526;13.360;2022-10-31T03:59:16;11.20;99.90
3756;DHT22;1893;52.526;13.360;2022-10-31T04:01:44;11.20;99.90
3756;DHT22;1893;52.526;13.360;2022-10-31T04:04:12;11.20;99.90
3756;DHT22;1893;52.526;13.360;2022-10-31T04:06:40;11.30;99.90
3756;DHT22;1893;52.526;13.360;2022-10-31T04:09:08;11.30;99.90
3756;DHT22;1893;52.526;13.360;2022-10-31T04:11:38;11.30;99.90
3756;DHT22;1893;52.526;13.360;2022-10-31T04:14:06;11.40;99.90
3756;DHT22;1893;52.526;13.360;2022-10-31T04:16:32;11.40;99.90
3756;DHT22;1893;52.526;13.360;2022-10-31T04:18:58;11.30;99.90
3756;DHT22;1893;52.526;13.360;2022-10-31T04:21:27;11.30;99.90
3756;DHT22;1893;52.526;13.360;2022-10-31T04:23:55;11.30;99.90
3756;DHT22;1893;52.526;13.360;2022-10-31T04:26:20;11.30;99.90
3756;DHT22;1893;52.526;13.360;2022-10-31T04:28:46;11.30;99.90
3756;DHT22;1893;52.526;13.360;2022-10-31T04:31:12;11.40;99.90
3756;DHT22;1893;52.526;13.360;2022-10-31T04:33:38;11.40;99.90
3756;DHT22;1893;52.526;13.360;2022-10-31T04:36:04;11.50;99.90
3756;DHT22;1893;52.526;13.360;2022-10-31T04:38:32;11.50;99.90
3756;DHT22;1893;52.526;13.360;2022-10-31T04:40:58;11.50;99.90
3756;DHT22;1893;52.526;13.360;2022-10-31T04:43:23;11.50;99.90
3756;DHT22;1893;52.526;13.360;2022-10-31T04:45:49;11.50;99.90
3756;DHT22;1893;52.526;13.360;2022-10-31T04:48:15;11.50;99.90
3756;DHT22;1893;52.526;13.360;2022-10-31T04:50:40;11.50;99.90
3756;DHT22;1893;52.526;13.360;2022-10-31T04:53:06;11.50;99.90
3756;DHT22;1893;52.526;13.360;2022-10-31T04:55:31;11.50;99.90
3756;DHT22;1893;52.526;13.360;2022-10-31T04:57:57;11.50;99.90
3756;DHT22;1893;52.526;13.360;2022-10-31T05:00:22;11.60;99.90
3756;DHT22;1893;52.526;13.360;2022-10-31T05:02:49;11.50;99.90
3756;DHT22;1893;52.526;13.360;2022-10-31T05:05:17;11.50;99.90
3756;DHT22;1893;52.526;13.360;2022-10-31T05:07:45;11.50;99.90
3756;DHT22;1893;52.526;13.360;2022-10-31T05:10:13;11.50;99.90
3756;DHT22;1893;52.526;13.360;2022-10-31T05:12:46;11.50;99.90
3756;DHT22;1893;52.526;13.360;2022-10-31T05:15:13;11.50;99.90
3756;DHT22;1893;52.526;13.360;2022-10-31T05:17:39;11.40;99.90
3756;DHT22;1893;52.526;13.360;2022-10-31T05:20:04;11.50;99.90
3756;DHT22;1893;52.526;13.360;2022-10-31T05:22:30;11.60;99.90
3756;DHT22;1893;52.526;13.360;2022-10-31T05:24:56;11.70;99.90
3756;DHT22;1893;52.526;13.360;2022-10-31T05:27:21;11.70;99.90
3756;DHT22;1893;52.526;13.360;2022-10-31T05:29:47;11.70;99.90
3756;DHT22;1893;52.526;13.360;2022-10-31T05:32:12;11.60;99.90
3756;DHT22;1893;52.526;13.360;2022-10-31T05:34:38;11.60;99.90
3756;DHT22;1893;52.526;13.360;2022-10-31T05:37:03;11.60;99.90
3756;DHT22;1893;52.526;13.360;2022-10-31T05:39:29;11.60;99.90
3756;DHT22;1893;52.526;13.360;2022-10-31T05:41:54;11.60;99.90
3756;DHT22;1893;52.526;13.360;2022-10-31T05:44:20;11.60;99.90
3756;DHT22;1893;52.526;13.360;2022-10-31T05:46:48;11.60;99.90
3756;DHT22;1893;52.526;13.360;2022-10-31T05:49:14;11.50;99.90
3756;DHT22;1893;52.526;13.360;2022-10-31T05:51:40;11.50;99.90
3756;DHT22;1893;52.526;13.360;2022-10-31T05:54:05;11.50;99.90
3756;DHT22;1893;52.526;13.360;2022-10-31T05:56:30;11.50;99.90
3756;DHT22;1893;52.526;13.360;2022-10-31T05:58:56;11.50;99.90
3756;DHT22;1893;52.526;13.360;2022-10-31T06:01:22;11.60;99.90
3756;DHT22;1893;52.526;13.360;2022-10-31T06:03:47;11.50;99.90
3756;DHT22;1893;52.526;13.360;2022-10-31T06:06:13;11.60;99.90
3756;DHT22;1893;52.526;13.360;2022-10-31T06:08:38;11.70;99.90
3756;DHT22;1893;52.526;13.360;2022-10-31T06:11:04;11.70;99.90
3756;DHT22;1893;52.526;13.360;2022-10-31T06:13:29;11.80;99.90
3756;DHT22;1893;52.526;13.360;2022-10-31T06:15:55;11.80;99.90
3756;DHT22;1893;52.526;13.360;2022-10-31T06:18:20;11.80;99.90
3756;DHT22;1893;52.526;13.360;2022-10-31T06:20:46;11.80;99.90
3756;DHT22;1893;52.526;13.360;2022-10-31T06:23:11;11.90;99.90
3756;DHT22;1893;52.526;13.360;2022-10-31T06:25:37;11.90;99.90
3756;DHT22;1893;52.526;13.360;2022-10-31T06:28:03;12.00;99.90
3756;DHT22;1893;52.526;13.360;2022-10-31T06:30:28;12.00;99.90
3756;DHT22;1893;52.526;13.360;2022-10-31T06:32:54;12.00;99.90
3756;DHT22;1893;52.526;13.360;2022-10-31T06:35:20;12.00;99.90
3756;DHT22;1893;52.526;13.360;2022-10-31T06:37:52;12.10;99.90
3756;DHT22;1893;52.526;13.360;2022-10-31T06:40:18;12.20;99.90
3756;DHT22;1893;52.526;13.360;2022-10-31T06:42:43;12.20;99.90
3756;DHT22;1893;52.526;13.360;2022-10-31T06:45:09;12.30;99.90
3756;DHT22;1893;52.526;13.360;2022-10-31T06:47:34;12.30;99.90
3756;DHT22;1893;52.526;13.360;2022-10-31T06:50:00;12.30;99.90
3756;DHT22;1893;52.526;13.360;2022-10-31T06:52:25;12.40;99.90
3756;DHT22;1893;52.526;13.360;2022-10-31T06:54:51;12.40;99.90
3756;DHT22;1893;52.526;13.360;2022-10-31T06:57:16;12.40;99.90
3756;DHT22;1893;52.526;13.360;2022-10-31T06:59:42;12.50;99.90
3756;DHT22;1893;52.526;13.360;2022-10-31T07:02:09;12.50;99.90
3756;DHT22;1893;52.526;13.360;2022-10-31T07:04:37;12.70;99.90
3756;DHT22;1893;52.526;13.360;2022-10-31T07:07:03;12.80;99.90
3756;DHT22;1893;52.526;13.360;2022-10-31T07:09:28;12.90;99.90
3756;DHT22;1893;52.526;13.360;2022-10-31T07:11:54;13.00;99.90
3756;DHT22;1893;52.526;13.360;2022-10-31T07:14:19;13.10;99.90
3756;DHT22;1893;52.526;13.360;2022-10-31T07:16:49;13.30;99.90
3756;DHT22;1893;52.526;13.360;2022-10-31T07:19:15;13.40;99.90
3756;DHT22;1893;52.526;13.360;2022-10-31T07:21:41;13.50;99.90
3756;DHT22;1893;52.526;13.360;2022-10-31T07:24:06;13.60;99.90
3756;DHT22;1893;52.526;13.360;2022-10-31T07:26:32;13.70;99.90
3756;DHT22;1893;52.526;13.360;2022-10-31T07:28:57;13.90;99.90
3756;DHT22;1893;52.526;13.360;2022-10-31T07:31:24;14.10;99.90
3756;DHT22;1893;52.526;13.360;2022-10-31T07:33:50;14.20;99.90
3756;DHT22;1893;52.526;13.360;2022-10-31T07:36:15;14.40;99.90
3756;DHT22;1893;52.526;13.360;2022-10-31T07:38:41;14.40;99.90
3756;DHT22;1893;52.526;13.360;2022-10-31T07:41:07;14.50;99.90
3756;DHT22;1893;52.526;13.360;2022-10-31T07:43:32;14.50;99.90
3756;DHT22;1893;52.526;13.360;2022-10-31T07:45:58;14.50;99.90
3756;DHT22;1893;52.526;13.360;2022-10-31T07:48:23;14.70;99.90
3756;DHT22;1893;52.526;13.360;2022-10-31T07:50:49;14.70;99.90
3756;DHT22;1893;52.526;13.360;2022-10-31T07:53:15;14.60;99.90
3756;DHT22;1893;52.526;13.360;2022-10-31T07:55:41;14.60;99.90
3756;DHT22;1893;52.526;13.360;2022-10-31T07:58:12;14.50;99.90
3756;DHT22;1893;52.526;13.360;2022-10-31T08:00:39;14.40;99.90
3756;DHT22;1893;52.526;13.360;2022-10-31T08:03:07;14.50;99.90
3756;DHT22;1893;52.526;13.360;2022-10-31T08:05:34;14.50;99.90
3756;DHT22;1893;52.526;13.360;2022-10-31T08:08:00;14.30;99.90
3756;DHT22;1893;52.526;13.360;2022-10-31T08:10:26;14.20;99.90
3756;DHT22;1893;52.526;13.360;2022-10-31T08:12:56;14.10;99.90
3756;DHT22;1893;52.526;13.360;2022-10-31T08:15:23;14.20;99.90
3756;DHT22;1893;52.526;13.360;2022-10-31T08:17:48;14.10;99.90
3756;DHT22;1893;52.526;13.360;2022-10-31T08:20:14;14.00;99.90
3756;DHT22;1893;52.526;13.360;2022-10-31T08:22:39;14.10;99.90
3756;DHT22;1893;52.526;13.360;2022-10-31T08:25:05;14.20;99.90
3756;DHT22;1893;52.526;13.360;2022-10-31T08:27:31;14.20;99.90
3756;DHT22;1893;52.526;13.360;2022-10-31T08:29:56;14.40;99.90
3756;DHT22;1893;52.526;13.360;2022-10-31T08:32:22;14.20;99.90
3756;DHT22;1893;52.526;13.360;2022-10-31T08:34:47;14.10;99.90
3756;DHT22;1893;52.526;13.360;2022-10-31T08:37:13;14.10;99.90
3756;DHT22;1893;52.526;13.360;2022-10-31T08:39:43;14.00;99.90
3756;DHT22;1893;52.526;13.360;2022-10-31T08:42:09;14.20;99.90
3756;DHT22;1893;52.526;13.360;2022-10-31T08:44:34;14.30;99.90
3756;DHT22;1893;52.526;13.360;2022-10-31T08:47:00;14.50;99.90
3756;DHT22;1893;52.526;13.360;2022-10-31T08:49:26;14.90;99.90
3756;DHT22;1893;52.526;13.360;2022-10-31T08:51:51;15.30;99.90
3756;DHT22;1893;52.526;13.360;2022-10-31T08:54:17;15.80;99.90
3756;DHT22;1893;52.526;13.360;2022-10-31T08:56:42;16.40;58.20
3756;DHT22;1893;52.526;13.360;2022-10-31T08:59:08;16.20;1.00
3756;DHT22;1893;52.526;13.360;2022-10-31T09:01:34;15.90;27.80
3756;DHT22;1893;52.526;13.360;2022-10-31T09:03:59;16.00;99.90
3756;DHT22;1893;52.526;13.360;2022-10-31T09:06:24;16.90;1.00
3756;DHT22;1893;52.526;13.360;2022-10-31T09:08:50;16.80;1.00
3756;DHT22;1893;52.526;13.360;2022-10-31T09:11:16;16.90;1.00
3756;DHT22;1893;52.526;13.360;2022-10-31T09:13:41;16.40;1.00
3756;DHT22;1893;52.526;13.360;2022-10-31T09:16:07;16.40;1.00
3756;DHT22;1893;52.526;13.360;2022-10-31T09:18:32;16.10;1.00
3756;DHT22;1893;52.526;13.360;2022-10-31T09:20:59;16.50;1.00
3756;DHT22;1893;52.526;13.360;2022-10-31T09:23:25;16.60;1.00
3756;DHT22;1893;52.526;13.360;2022-10-31T09:25:52;16.60;1.00
3756;DHT22;1893;52.526;13.360;2022-10-31T09:28:21;15.90;7.60
3756;DHT22;1893;52.526;13.360;2022-10-31T09:30:48;16.30;57.30
3756;DHT22;1893;52.526;13.360;2022-10-31T09:33:14;16.70;1.00
3756;DHT22;1893;52.526;13.360;2022-10-31T09:35:40;17.60;1.00
3756;DHT22;1893;52.526;13.360;2022-10-31T09:38:10;17.60;99.90
3756;DHT22;1893;52.526;13.360;2022-10-31T09:40:40;17.50;1.00
3756;DHT22;1893;52.526;13.360;2022-10-31T09:51:28;16.20;1.00
3756;DHT22;1893;52.526;13.360;2022-10-31T09:54:04;16.30;99.90
3756;DHT22;1893;52.526;13.360;2022-10-31T09:56:31;17.20;1.00
3756;DHT22;1893;52.526;13.360;2022-10-31T09:58:59;18.20;99.90
3756;DHT22;1893;52.526;13.360;2022-10-31T10:01:59;19.30;99.90
3756;DHT22;1893;52.526;13.360;2022-10-31T10:04:46;20.10;99.90
3756;DHT22;1893;52.526;13.360;2022-10-31T10:10:14;20.60;99.90
3756;DHT22;1893;52.526;13.360;2022-10-31T10:12:58;20.90;1.00
3756;DHT22;1893;52.526;13.360;2022-10-31T10:15:31;20.80;1.00
3756;DHT22;1893;52.526;13.360;2022-10-31T10:18:11;21.30;1.00
3756;DHT22;1893;52.526;13.360;2022-10-31T10:26:02;20.90;1.00
3756;DHT22;1893;52.526;13.360;2022-10-31T10:28:36;21.70;99.90
3756;DHT22;1893;52.526;13.360;2022-10-31T10:31:11;22.60;99.90
3756;DHT22;1893;52.526;13.360;2022-10-31T10:33:59;21.20;99.90
3756;DHT22;1893;52.526;13.360;2022-10-31T10:36:41;22.30;99.90
3756;DHT22;1893;52.526;13.360;2022-10-31T10:39:16;23.10;1.00
3756;DHT22;1893;52.526;13.360;2022-10-31T10:41:47;22.30;1.00
3756;DHT22;1893;52.526;13.360;2022-10-31T10:44:33;22.10;1.00
3756;DHT22;1893;52.526;13.360;2022-10-31T10:47:18;22.60;30.00
3756;DHT22;1893;52.526;13.360;2022-10-31T10:50:27;23.10;1.00
3756;DHT22;1893;52.526;13.360;2022-10-31T10:53:06;23.30;1.00
3756;DHT22;1893;52.526;13.360;2022-10-31T10:58:09;22.00;73.60
3756;DHT22;1893;52.526;13.360;2022-10-31T11:00:41;22.00;99.90
3756;DHT22;1893;52.526;13.360;2022-10-31T11:03:08;22.80;1.00
3756;DHT22;1893;52.526;13.360;2022-10-31T11:05:39;24.10;1.00
3756;DHT22;1893;52.526;13.360;2022-10-31T11:08:06;24.30;1.00
3756;DHT22;1893;52.526;13.360;2022-10-31T11:10:32;23.80;1.00
3756;DHT22;1893;52.526;13.360;2022-10-31T11:13:05;22.10;1.00
3756;DHT22;1893;52.526;13.360;2022-10-31T11:15:52;22.30;1.00
3756;DHT22;1893;52.526;13.360;2022-10-31T11:18:24;23.20;1.00
3756;DHT22;1893;52.526;13.360;2022-10-31T11:20:59;23.50;1.00
3756;DHT22;1893;52.526;13.360;2022-10-31T11:23:26;23.40;1.00
3756;DHT22;1893;52.526;13.360;2022-10-31T11:26:05;23.80;1.00
3756;DHT22;1893;52.526;13.360;2022-10-31T11:28:32;24.80;1.00
3756;DHT22;1893;52.526;13.360;2022-10-31T11:31:05;25.00;1.00
3756;DHT22;1893;52.526;13.360;2022-10-31T11:33:39;24.40;1.00
3756;DHT22;1893;52.526;13.360;2022-10-31T11:36:37;24.10;1.00
3756;DHT22;1893;52.526;13.360;2022-10-31T11:39:05;25.10;1.00
3756;DHT22;1893;52.526;13.360;2022-10-31T11:41:38;25.20;1.00
3756;DHT22;1893;52.526;13.360;2022-10-31T11:44:15;23.90;1.00
3756;DHT22;1893;52.526;13.360;2022-10-31T11:46:50;24.40;1.00
3756;DHT22;1893;52.526;13.360;2022-10-31T11:49:29;23.90;1.00
3756;DHT22;1893;52.526;13.360;2022-10-31T11:51:58;23.80;1.00
3756;DHT22;1893;52.526;13.360;2022-10-31T11:54:36;24.30;1.00
3756;DHT22;1893;52.526;13.360;2022-10-31T11:57:04;24.50;1.00
3756;DHT22;1893;52.526;13.360;2022-10-31T11:59:31;25.20;1.00
3756;DHT22;1893;52.526;13.360;2022-10-31T12:01:59;24.40;1.00
3756;DHT22;1893;52.526;13.360;2022-10-31T12:04:46;24.10;1.00
3756;DHT22;1893;52.526;13.360;2022-10-31T12:07:13;24.40;1.00
3756;DHT22;1893;52.526;13.360;2022-10-31T12:09:40;24.60;1.00
3756;DHT22;1893;52.526;13.360;2022-10-31T12:12:34;24.50;1.00
3756;DHT22;1893;52.526;13.360;2022-10-31T12:15:25;23.90;1.00
3756;DHT22;1893;52.526;13.360;2022-10-31T12:18:24;24.50;1.00
3756;DHT22;1893;52.526;13.360;2022-10-31T12:26:39;24.50;1.00
3756;DHT22;1893;52.526;13.360;2022-10-31T12:45:59;22.80;1.00
3756;DHT22;1893;52.526;13.360;2022-10-31T13:00:11;23.00;1.00
3756;DHT22;1893;52.526;13.360;2022-10-31T13:05:26;23.40;1.00
3756;DHT22;1893;52.526;13.360;2022-10-31T13:07:59;23.20;1.00
3756;DHT22;1893;52.526;13.360;2022-10-31T13:13:02;22.90;1.00
3756;DHT22;1893;52.526;13.360;2022-10-31T13:15:34;23.10;1.00
3756;DHT22;1893;52.526;13.360;2022-10-31T13:18:09;23.00;1.00
3756;DHT22;1893;52.526;13.360;2022-10-31T13:20:46;22.40;1.00
3756;DHT22;1893;52.526;13.360;2022-10-31T13:25:52;21.90;99.90
3756;DHT22;1893;52.526;13.360;2022-10-31T13:28:31;22.20;99.90
3756;DHT22;1893;52.526;13.360;2022-10-31T13:30:59;21.90;99.90
3756;DHT22;1893;52.526;13.360;2022-10-31T13:39:09;21.10;1.00
3756;DHT22;1893;52.526;13.360;2022-10-31T13:41:49;20.90;26.00
3756;DHT22;1893;52.526;13.360;2022-10-31T13:44:27;20.90;7.20
3756;DHT22;1893;52.526;13.360;2022-10-31T13:46:55;20.90;99.90
3756;DHT22;1893;52.526;13.360;2022-10-31T13:52:25;20.10;99.90
3756;DHT22;1893;52.526;13.360;2022-10-31T13:54:52;19.70;1.00
3756;DHT22;1893;52.526;13.360;2022-10-31T13:57:33;19.40;1.00
3756;DHT22;1893;52.526;13.360;2022-10-31T14:00:04;19.20;99.90
3756;DHT22;1893;52.526;13.360;2022-10-31T14:02:34;18.90;1.00
3756;DHT22;1893;52.526;13.360;2022-10-31T14:05:04;18.50;1.00
3756;DHT22;1893;52.526;13.360;2022-10-31T14:07:31;18.30;1.00
3756;DHT22;1893;52.526;13.360;2022-10-31T14:10:04;18.20;1.00
3756;DHT22;1893;52.526;13.360;2022-10-31T14:12:35;18.10;1.00
3756;DHT22;1893;52.526;13.360;2022-10-31T14:15:34;18.00;1.00
3756;DHT22;1893;52.526;13.360;2022-10-31T14:18:06;17.90;1.00
3756;DHT22;1893;52.526;13.360;2022-10-31T14:20:42;17.70;1.00
3756;DHT22;1893;52.526;13.360;2022-10-31T14:28:49;17.00;99.90
3756;DHT22;1893;52.526;13.360;2022-10-31T14:47:37;16.20;99.90
3756;DHT22;1893;52.526;13.360;2022-10-31T14:50:53;16.10;99.90
3756;DHT22;1893;52.526;13.360;2022-10-31T14:52:56;15.90;99.90
3756;DHT22;1893;52.526;13.360;2022-10-31T14:55:23;15.80;99.90
3756;DHT22;1893;52.526;13.360;2022-10-31T14:58:07;15.60;99.90
3756;DHT22;1893;52.526;13.360;2022-10-31T15:00:33;15.60;99.90
3756;DHT22;1893;52.526;13.360;2022-10-31T15:03:17;15.40;99.90
3756;DHT22;1893;52.526;13.360;2022-10-31T15:05:55;15.20;99.90
3756;DHT22;1893;52.526;13.360;2022-10-31T15:08:40;15.10;99.90
3756;DHT22;1893;52.526;13.360;2022-10-31T15:11:23;15.00;99.90
3756;DHT22;1893;52.526;13.360;2022-10-31T15:13:55;15.00;99.90
3756;DHT22;1893;52.526;13.360;2022-10-31T15:16:26;14.80;99.90
3756;DHT22;1893;52.526;13.360;2022-10-31T15:18:56;14.60;99.90
3756;DHT22;1893;52.526;13.360;2022-10-31T15:21:24;14.50;99.90
3756;DHT22;1893;52.526;13.360;2022-10-31T15:23:52;14.50;99.90
3756;DHT22;1893;52.526;13.360;2022-10-31T15:26:21;14.50;99.90
3756;DHT22;1893;52.526;13.360;2022-10-31T15:29:11;14.40;99.90
3756;DHT22;1893;52.526;13.360;2022-10-31T15:31:37;14.40;99.90
3756;DHT22;1893;52.526;13.360;2022-10-31T15:34:14;14.40;99.90
3756;DHT22;1893;52.526;13.360;2022-10-31T15:36:41;14.40;99.90
3756;DHT22;1893;52.526;13.360;2022-10-31T15:39:13;14.40;99.90
3756;DHT22;1893;52.526;13.360;2022-10-31T15:41:56;14.40;99.90
3756;DHT22;1893;52.526;13.360;2022-10-31T15:47:00;14.50;99.90
3756;DHT22;1893;52.526;13.360;2022-10-31T15:49:37;14.50;99.90
3756;DHT22;1893;52.526;13.360;2022-10-31T15:52:09;14.40;99.90
3756;DHT22;1893;52.526;13.360;2022-10-31T15:54:46;14.40;99.90
3756;DHT22;1893;52.526;13.360;2022-10-31T15:57:12;14.50;99.90
3756;DHT22;1893;52.526;13.360;2022-10-31T15:59:42;14.60;99.90
3756;DHT22;1893;52.526;13.360;2022-10-31T16:02:11;14.50;99.90
3756;DHT22;1893;52.526;13.360;2022-10-31T16:04:48;14.50;99.90
3756;DHT22;1893;52.526;13.360;2022-10-31T16:07:16;14.50;99.90
3756;DHT22;1893;52.526;13.360;2022-10-31T16:09:53;14.50;99.90
3756;DHT22;1893;52.526;13.360;2022-10-31T16:12:20;14.40;99.90
3756;DHT22;1893;52.526;13.360;2022-10-31T16:14:47;14.40;99.90
3756;DHT22;1893;52.526;13.360;2022-10-31T16:17:14;14.40;99.90
3756;DHT22;1893;52.526;13.360;2022-10-31T16:19:47;14.40;99.90
3756;DHT22;1893;52.526;13.360;2022-10-31T16:22:21;14.40;99.90
3756;DHT22;1893;52.526;13.360;2022-10-31T16:25:12;14.30;99.90
3756;DHT22;1893;52.526;13.360;2022-10-31T16:27:40;14.20;99.90
3756;DHT22;1893;52.526;13.360;2022-10-31T16:33:21;14.20;99.90
3756;DHT22;1893;52.526;13.360;2022-10-31T16:35:48;14.30;99.90
3756;DHT22;1893;52.526;13.360;2022-10-31T16:38:13;14.40;99.90
3756;DHT22;1893;52.526;13.360;2022-10-31T16:40:39;14.30;99.90
3756;DHT22;1893;52.526;13.360;2022-10-31T16:43:10;14.30;99.90
3756;DHT22;1893;52.526;13.360;2022-10-31T16:45:38;14.20;99.90
3756;DHT22;1893;52.526;13.360;2022-10-31T16:48:17;14.30;99.90
3756;DHT22;1893;52.526;13.360;2022-10-31T16:50:44;14.20;99.90
3756;DHT22;1893;52.526;13.360;2022-10-31T16:53:11;14.30;99.90
3756;DHT22;1893;52.526;13.360;2022-10-31T16:55:50;14.30;99.90
3756;DHT22;1893;52.526;13.360;2022-10-31T16:58:28;14.20;99.90
3756;DHT22;1893;52.526;13.360;2022-10-31T17:00:59;14.20;99.90
3756;DHT22;1893;52.526;13.360;2022-10-31T17:03:25;14.30;99.90
3756;DHT22;1893;52.526;13.360;2022-10-31T17:05:50;14.20;99.90
3756;DHT22;1893;52.526;13.360;2022-10-31T17:08:16;14.20;99.90
3756;DHT22;1893;52.526;13.360;2022-10-31T17:10:43;14.20;99.90
3756;DHT22;1893;52.526;13.360;2022-10-31T17:13:13;14.30;99.90
3756;DHT22;1893;52.526;13.360;2022-10-31T17:15:44;14.30;99.90
3756;DHT22;1893;52.526;13.360;2022-10-31T17:18:12;14.20;99.90
3756;DHT22;1893;52.526;13.360;2022-10-31T17:20:38;14.20;99.90
3756;DHT22;1893;52.526;13.360;2022-10-31T17:23:04;14.20;99.90
3756;DHT22;1893;52.526;13.360;2022-10-31T17:25:30;14.10;99.90
3756;DHT22;1893;52.526;13.360;2022-10-31T17:27:59;14.10;99.90
3756;DHT22;1893;52.526;13.360;2022-10-31T17:30:25;14.20;99.90
3756;DHT22;1893;52.526;13.360;2022-10-31T17:32:51;14.20;99.90
3756;DHT22;1893;52.526;13.360;2022-10-31T17:35:18;14.10;99.90
3756;DHT22;1893;52.526;13.360;2022-10-31T17:37:44;14.10;99.90
3756;DHT22;1893;52.526;13.360;2022-10-31T17:40:11;14.20;99.90
3756;DHT22;1893;52.526;13.360;2022-10-31T17:42:37;14.20;99.90
3756;DHT22;1893;52.526;13.360;2022-10-31T17:45:05;14.20;99.90
3756;DHT22;1893;52.526;13.360;2022-10-31T17:47:30;14.20;99.90
3756;DHT22;1893;52.526;13.360;2022-10-31T17:49:56;14.20;99.90
3756;DHT22;1893;52.526;13.360;2022-10-31T17:52:22;14.10;99.90
3756;DHT22;1893;52.526;13.360;2022-10-31T17:54:47;14.20;99.90
3756;DHT22;1893;52.526;13.360;2022-10-31T17:57:13;14.10;99.90
3756;DHT22;1893;52.526;13.360;2022-10-31T17:59:39;14.20;99.90
3756;DHT22;1893;52.526;13.360;2022-10-31T18:02:04;14.10;99.90
3756;DHT22;1893;52.526;13.360;2022-10-31T18:04:34;14.10;99.90
3756;DHT22;1893;52.526;13.360;2022-10-31T18:07:00;14.00;99.90
3756;DHT22;1893;52.526;13.360;2022-10-31T18:09:26;14.00;99.90
3756;DHT22;1893;52.526;13.360;2022-10-31T18:11:52;14.00;99.90
3756;DHT22;1893;52.526;13.360;2022-10-31T18:14:17;13.90;99.90
3756;DHT22;1893;52.526;13.360;2022-10-31T18:16:43;13.90;99.90